createdAt,value
2024-01-07T00:00:01.814Z,-1.40
2024-01-07T00:05:07.751Z,-1.55
2024-01-07T00:10:11.484Z,-1.47
2024-01-07T00:15:14.400Z,-1.51
2024-01-07T00:20:17.137Z,-1.65
2024-01-07T00:25:20.087Z,-1.67
2024-01-07T00:30:23.419Z,-1.77
2024-01-07T00:35:26.231Z,-1.78
2024-01-07T00:40:28.916Z,-1.71
2024-01-07T00:45:31.881Z,-1.68
2024-01-07T00:50:34.656Z,-1.82
2024-01-07T00:55:37.690Z,-1.70
2024-01-07T01:00:40.443Z,-1.74
2024-01-07T01:05:43.175Z,-1.77
2024-01-07T01:10:45.981Z,-1.75
2024-01-07T01:15:48.793Z,-1.70
2024-01-07T01:20:51.589Z,-1.74
2024-01-07T01:25:54.860Z,-1.66
2024-01-07T01:30:57.683Z,-1.79
2024-01-07T01:36:00.399Z,-1.83
2024-01-07T01:41:03.198Z,-1.93
2024-01-07T01:46:06.046Z,-1.94
2024-01-07T01:51:10.365Z,-2.02
2024-01-07T01:56:13.739Z,-1.89
2024-01-07T02:01:16.769Z,-1.92
2024-01-07T02:06:20.271Z,-1.77
2024-01-07T02:11:24.357Z,-1.64
2024-01-07T02:16:27.162Z,-2.01
2024-01-07T02:21:30.325Z,-2.04
2024-01-07T02:26:33.162Z,-2.12
2024-01-07T02:31:36.030Z,-2.00
2024-01-07T02:36:38.888Z,-2.06
2024-01-07T02:41:41.634Z,-2.03
2024-01-07T02:46:44.931Z,-1.74
2024-01-07T02:51:50.837Z,-2.04
2024-01-07T02:56:53.546Z,-2.16
2024-01-07T03:01:56.341Z,-2.15
2024-01-07T03:06:59.089Z,-2.11
2024-01-07T03:12:02.125Z,-2.20
2024-01-07T03:17:06.490Z,-2.10
2024-01-07T03:22:09.547Z,-2.22
2024-01-07T03:27:12.292Z,-2.12
2024-01-07T03:32:15.165Z,-2.13
2024-01-07T03:37:18.581Z,-2.33
2024-01-07T03:42:21.578Z,-2.28
2024-01-07T03:47:24.551Z,-2.38
2024-01-07T03:52:27.300Z,-2.41
2024-01-07T03:57:30.104Z,-2.30
2024-01-07T04:02:32.864Z,-2.38
2024-01-07T04:07:36.518Z,-2.42
2024-01-07T04:12:39.369Z,-2.44
2024-01-07T04:17:42.329Z,-2.43
2024-01-07T04:22:45.100Z,-2.57
2024-01-07T04:27:48.051Z,-2.62
2024-01-07T04:32:51.245Z,-2.34
2024-01-07T04:37:53.915Z,-2.53
2024-01-07T04:42:57.173Z,-2.74
2024-01-07T04:48:00.061Z,-2.67
2024-01-07T04:53:02.923Z,-2.66
2024-01-07T04:58:06.214Z,-2.71
2024-01-07T05:03:08.969Z,-2.83
2024-01-07T05:08:11.844Z,-2.82
2024-01-07T05:13:14.610Z,-2.87
2024-01-07T05:18:19.534Z,-2.91
2024-01-07T05:23:22.639Z,-2.81
2024-01-07T05:28:25.702Z,-2.82
2024-01-07T05:33:28.750Z,-2.86
2024-01-07T05:38:33.022Z,-2.77
2024-01-07T05:43:38.292Z,-2.76
2024-01-07T05:48:49.223Z,-2.78
2024-01-07T05:53:52.037Z,-2.82
2024-01-07T05:58:54.635Z,-2.84
2024-01-07T06:03:57.418Z,-2.97
2024-01-07T06:09:00.398Z,-2.93
2024-01-07T06:14:05.865Z,-2.99
2024-01-07T06:19:09.341Z,-3.04
2024-01-07T06:24:12.734Z,-3.17
2024-01-07T06:29:15.437Z,-3.16
2024-01-07T06:34:18.319Z,-3.19
2024-01-07T06:39:21.093Z,-3.06
2024-01-07T06:44:23.783Z,-3.29
2024-01-07T06:49:26.537Z,-3.26
2024-01-07T06:54:29.343Z,-3.24
2024-01-07T06:59:32.670Z,-3.23
2024-01-07T07:04:35.465Z,-3.30
2024-01-07T07:09:38.340Z,-3.21
2024-01-07T07:14:41.321Z,-3.30
2024-01-07T07:19:46.005Z,-3.24
2024-01-07T07:29:52.086Z,-3.32
2024-01-07T07:34:54.895Z,-3.32
2024-01-07T07:39:57.855Z,-3.33
2024-01-07T07:45:00.592Z,-3.32
2024-01-07T07:50:03.729Z,-3.32
2024-01-07T07:55:08.846Z,-3.23
2024-01-07T08:00:15.068Z,-3.39
2024-01-07T08:05:21.325Z,-3.23
2024-01-07T08:10:24.841Z,-3.29
2024-01-07T08:15:27.685Z,-3.04
2024-01-07T08:20:30.567Z,-3.06
2024-01-07T08:25:33.658Z,-3.09
2024-01-07T08:30:36.815Z,-3.08
2024-01-07T08:35:40.142Z,-3.16
2024-01-07T08:40:42.954Z,-3.03
2024-01-07T08:45:45.655Z,-3.26
2024-01-07T08:50:48.334Z,-3.05
2024-01-07T08:55:51.271Z,-3.38
2024-01-07T09:00:54.032Z,-3.22
2024-01-07T09:05:56.994Z,-3.22
2024-01-07T09:11:01.713Z,-3.52
2024-01-07T09:16:04.708Z,-3.34
2024-01-07T09:21:07.728Z,-3.26
2024-01-07T09:26:10.563Z,-3.20
2024-01-07T09:31:13.463Z,-3.32
2024-01-07T09:36:26.297Z,-3.26
2024-01-07T09:41:33.010Z,-2.97
2024-01-07T09:46:38.621Z,-2.57
2024-01-07T09:51:45.915Z,-2.69
2024-01-07T09:57:02.741Z,-2.88
2024-01-07T10:02:06.228Z,-2.66
2024-01-07T10:07:15.116Z,-2.55
2024-01-07T10:12:18.724Z,-2.48
2024-01-07T10:17:22.570Z,-2.68
2024-01-07T10:22:25.461Z,-2.72
2024-01-07T10:27:28.519Z,-3.07
2024-01-07T10:32:31.377Z,-2.80
2024-01-07T10:37:35.123Z,-3.36
2024-01-07T10:42:39.983Z,-3.16
2024-01-07T10:47:45.580Z,-3.33
2024-01-07T10:52:55.133Z,-3.05
2024-01-07T10:57:59.176Z,-3.19
2024-01-07T11:03:20.609Z,-3.51
2024-01-07T11:08:48.480Z,-3.32
2024-01-07T11:13:51.834Z,-3.48
2024-01-07T11:18:56.083Z,-3.31
2024-01-07T11:23:59.359Z,-3.73
2024-01-07T11:29:02.898Z,-3.65
2024-01-07T11:34:06.116Z,-3.56
2024-01-07T11:39:11.098Z,-3.45
2024-01-07T11:44:19.547Z,-3.34
2024-01-07T11:49:27.032Z,-3.37
2024-01-07T11:54:32.614Z,-3.56
2024-01-07T11:59:36.106Z,-3.41
2024-01-07T12:04:38.861Z,-3.49
2024-01-07T12:09:41.770Z,-3.78
2024-01-07T12:14:45.053Z,-3.74
2024-01-07T12:19:47.887Z,-3.99
2024-01-07T12:25:08.692Z,-3.73
2024-01-07T12:30:16.762Z,-4.22
2024-01-07T12:35:19.823Z,-4.15
2024-01-07T12:40:22.814Z,-4.31
2024-01-07T12:45:25.691Z,-4.08
2024-01-07T12:50:29.454Z,-3.91
2024-01-07T12:55:32.256Z,-4.31
2024-01-07T13:00:36.820Z,-4.42
2024-01-07T13:05:41.166Z,-4.33
2024-01-07T13:10:43.937Z,-4.60
2024-01-07T13:15:47.286Z,-4.69
2024-01-07T13:20:50.352Z,-4.56
2024-01-07T13:25:53.273Z,-4.50
2024-01-07T13:30:56.108Z,-4.55
2024-01-07T13:35:58.987Z,-4.79
2024-01-07T13:41:01.862Z,-4.75
2024-01-07T13:46:04.850Z,-4.61
2024-01-07T13:51:11.336Z,-4.70
2024-01-07T13:56:15.235Z,-4.82
2024-01-07T14:01:18.057Z,-4.83
2024-01-07T14:06:21.131Z,-4.91
2024-01-07T14:11:23.980Z,-4.91
2024-01-07T14:16:26.884Z,-4.95
2024-01-07T14:21:30.883Z,-4.94
2024-01-07T14:26:33.647Z,-5.29
2024-01-07T14:31:36.603Z,-5.03
2024-01-07T14:36:45.184Z,-5.20
2024-01-07T14:41:48.404Z,-5.20
2024-01-07T14:46:51.681Z,-5.27
2024-01-07T14:51:55.326Z,-5.27
2024-01-07T14:56:58.038Z,-5.47
2024-01-07T15:02:01.475Z,-5.58
2024-01-07T15:07:04.366Z,-5.62
2024-01-07T15:12:08.719Z,-5.66
2024-01-07T15:17:12.210Z,-5.66
2024-01-07T15:22:15.098Z,-5.54
2024-01-07T15:27:18.210Z,-5.59
2024-01-07T15:32:20.951Z,-5.66
2024-01-07T15:37:24.355Z,-5.75
2024-01-07T15:42:28.239Z,-5.60
2024-01-07T15:47:36.243Z,-5.72
2024-01-07T15:52:41.870Z,-5.56
2024-01-07T15:57:47.512Z,-5.47
2024-01-07T16:02:50.776Z,-5.67
2024-01-07T16:07:54.145Z,-5.50
2024-01-07T16:12:57.858Z,-5.47
2024-01-07T16:18:01.335Z,-5.53
2024-01-07T16:23:04.576Z,-5.72
2024-01-07T16:28:08.578Z,-5.54
2024-01-07T16:33:12.406Z,-5.73
2024-01-07T16:38:17.792Z,-5.73
2024-01-07T16:43:20.684Z,-5.72
2024-01-07T16:50:14.573Z,-5.67
2024-01-07T16:53:46.344Z,-5.83
2024-01-07T16:58:49.254Z,-5.98
2024-01-07T17:03:57.644Z,-6.01
2024-01-07T17:09:01.589Z,-5.98
2024-01-07T17:14:04.917Z,-5.99
2024-01-07T17:19:07.751Z,-5.96
2024-01-07T17:24:10.812Z,-6.04
2024-01-07T17:29:13.760Z,-5.99
2024-01-07T17:34:17.173Z,-5.71
2024-01-07T17:39:20.110Z,-5.85
2024-01-07T17:44:23.063Z,-5.96
2024-01-07T17:49:25.938Z,-6.09
2024-01-07T17:54:29.353Z,-6.00
2024-01-07T17:59:35.801Z,-5.99
2024-01-07T18:04:39.421Z,-6.08
2024-01-07T18:09:42.528Z,-6.04
2024-01-07T18:14:50.596Z,-5.88
2024-01-07T18:19:53.556Z,-5.82
2024-01-07T18:24:56.263Z,-5.88
2024-01-07T18:30:00.640Z,-6.11
2024-01-07T18:35:03.686Z,-6.02
2024-01-07T18:40:10.902Z,-6.07
2024-01-07T18:45:14.365Z,-5.97
2024-01-07T18:50:20.689Z,-6.02
2024-01-07T18:55:24.617Z,-5.89
2024-01-07T19:00:29.062Z,-5.80
2024-01-07T19:05:32.067Z,-6.01
2024-01-07T19:10:35.711Z,-6.01
2024-01-07T19:15:39.106Z,-6.04
2024-01-07T19:20:44.373Z,-6.06
2024-01-07T19:25:47.943Z,-6.05
2024-01-07T19:30:53.434Z,-6.16
2024-01-07T19:35:57.735Z,-6.16
2024-01-07T19:41:00.700Z,-6.14
2024-01-07T19:46:04.571Z,-6.00
2024-01-07T19:51:08.349Z,-5.99
2024-01-07T19:56:11.255Z,-6.06
2024-01-07T20:01:14.927Z,-6.21
2024-01-07T20:06:17.958Z,-6.20
2024-01-07T20:11:24.161Z,-6.22
2024-01-07T20:16:28.226Z,-6.11
2024-01-07T20:21:31.140Z,-6.08
2024-01-07T20:26:34.466Z,-6.01
2024-01-07T20:31:37.472Z,-5.93
2024-01-07T20:36:41.623Z,-6.03
2024-01-07T20:41:45.879Z,-6.06
2024-01-07T20:46:49.590Z,-6.04
2024-01-07T20:51:52.741Z,-6.01
2024-01-07T20:56:56.294Z,-6.10
2024-01-07T21:01:59.931Z,-6.09
2024-01-07T21:07:03.073Z,-6.21
2024-01-07T21:12:06.474Z,-6.34
2024-01-07T21:17:10.450Z,-6.26
2024-01-07T21:22:15.857Z,-6.19
2024-01-07T21:27:18.603Z,-6.31
2024-01-07T21:32:21.547Z,-6.23
2024-01-07T21:37:24.946Z,-6.34
2024-01-07T21:42:28.620Z,-6.31
2024-01-07T21:47:32.033Z,-6.31
2024-01-07T21:52:35.332Z,-6.35
2024-01-07T21:57:38.382Z,-6.30
2024-01-07T22:02:41.302Z,-6.45
2024-01-07T22:07:44.348Z,-6.36
2024-01-07T22:12:48.621Z,-6.50
2024-01-07T22:17:51.695Z,-6.64
2024-01-07T22:22:54.493Z,-6.71
2024-01-07T22:27:57.234Z,-6.78
2024-01-07T22:33:02.207Z,-6.94
2024-01-07T22:38:05.859Z,-6.71
2024-01-07T22:43:08.807Z,-6.97
2024-01-07T22:48:11.536Z,-7.00
2024-01-07T22:53:15.042Z,-7.16
2024-01-07T22:58:17.784Z,-7.07
2024-01-07T23:03:20.590Z,-7.19
2024-01-07T23:08:23.790Z,-7.23
2024-01-07T23:13:26.527Z,-7.25
2024-01-07T23:18:29.259Z,-7.17
2024-01-07T23:23:32.079Z,-7.23
2024-01-07T23:28:36.518Z,-7.16
2024-01-07T23:33:39.440Z,-7.12
2024-01-07T23:38:43.642Z,-7.21
2024-01-07T23:43:46.538Z,-7.00
2024-01-07T23:48:49.653Z,-7.22
2024-01-07T23:53:52.445Z,-7.14
2024-01-07T23:58:55.907Z,-6.94
